Time;durP1;ratioP1;P1;durP2;ratioP2;P2;SDS_P1;SDS_P2;PMS_P1;PMS_P2;Temp;Humidity;BMP_temperature;BMP_pressure;BME280_temperature;BME280_humidity;BME280_pressure;Samples;Min_cycle;Max_cycle;Signal;HPM_P1;HPM_P2
2022/05/06 00:01:01;;;;;;;8.90;5.03;;;;;;;12.26;60.24;94485.59;5083196;28;20028;-72
2022/05/06 00:03:27;;;;;;;10.02;5.00;;;;;;;12.25;60.41;94484.78;5083219;28;20318;-72
2022/05/06 00:05:53;;;;;;;9.68;4.20;;;;;;;12.22;60.55;94490.75;5083112;28;20025;-72
2022/05/06 00:08:18;;;;;;;10.50;4.70;;;;;;;12.19;60.47;94489.50;5083063;28;20054;-73
2022/05/06 00:10:44;;;;;;;8.80;5.10;;;;;;;12.15;60.75;94491.22;5082911;28;20035;-73
2022/05/06 00:13:09;;;;;;;10.35;4.25;;;;;;;12.12;60.87;94481.13;5082968;28;20036;-73
2022/05/06 00:15:36;;;;;;;9.23;4.07;;;;;;;12.10;60.93;94483.31;5083047;28;20196;-74
2022/05/06 00:18:02;;;;;;;12.80;4.72;;;;;;;12.06;61.09;94487.69;5083069;28;20277;-75
2022/05/06 00:20:27;;;;;;;9.20;4.82;;;;;;;12.06;61.07;94484.25;5083155;28;20050;-73
2022/05/06 00:22:53;;;;;;;8.90;4.53;;;;;;;11.97;61.21;94495.66;5086921;28;20056;-74
2022/05/06 00:25:18;;;;;;;11.02;4.80;;;;;;;11.92;61.28;94500.34;5086961;28;20070;-73
2022/05/06 00:27:44;;;;;;;8.80;4.63;;;;;;;11.89;61.29;94501.75;5086853;28;20040;-72
2022/05/06 00:30:10;;;;;;;7.00;4.55;;;;;;;11.78;61.57;94509.16;5087178;28;20188;-72
2022/05/06 00:32:36;;;;;;;6.72;3.78;;;;;;;11.71;61.59;94500.81;5086861;28;20096;-72
2022/05/06 00:35:01;;;;;;;9.73;4.78;;;;;;;11.64;62.11;94505.78;5086973;28;20226;-74
2022/05/06 00:37:27;;;;;;;9.52;4.68;;;;;;;11.61;62.33;94507.19;5086816;28;20024;-74
2022/05/06 00:39:53;;;;;;;10.30;5.18;;;;;;;11.58;62.39;94504.31;5086704;28;20045;-74
2022/05/06 00:42:18;;;;;;;9.95;5.95;;;;;;;11.61;62.32;94503.72;5086650;28;20037;-74
2022/05/06 00:44:44;;;;;;;8.23;4.88;;;;;;;11.62;62.13;94492.75;5086602;28;20025;-74
2022/05/06 00:47:09;;;;;;;10.27;5.03;;;;;;;11.64;62.45;94503.09;5086655;28;20051;-76
2022/05/06 00:49:36;;;;;;;10.23;5.68;;;;;;;11.67;62.49;94507.84;5086545;28;20028;-75
2022/05/06 00:52:04;;;;;;;10.40;5.15;;;;;;;11.68;62.77;94503.28;5086446;28;20330;-75
2022/05/06 00:54:34;;;;;;;9.48;5.03;;;;;;;11.68;62.66;94504.06;5086425;28;20028;-75
2022/05/06 00:57:00;;;;;;;9.07;4.25;;;;;;;11.68;62.75;94501.41;5086512;28;20229;-75
2022/05/06 00:59:26;;;;;;;10.02;5.18;;;;;;;11.69;62.72;94511.00;5086114;28;20113;-75
2022/05/06 01:01:51;;;;;;;7.00;4.85;;;;;;;11.67;62.49;94505.19;5068302;28;20303;-76
2022/05/06 01:04:17;;;;;;;8.68;4.55;;;;;;;11.66;62.31;94506.25;5085917;28;20048;-75
2022/05/06 01:06:43;;;;;;;7.72;4.82;;;;;;;11.68;62.37;94513.97;5086064;28;20023;-75
2022/05/06 01:09:17;;;;;;;8.68;4.78;;;;;;;11.68;62.23;94509.41;5086160;28;20024;-75
2022/05/06 01:11:43;;;;;;;9.95;4.90;;;;;;;11.60;62.55;94496.78;5085886;28;20234;-75
2022/05/06 01:14:09;;;;;;;10.27;5.03;;;;;;;11.56;62.54;94504.66;5086058;28;20024;-75
2022/05/06 01:16:35;;;;;;;8.70;4.55;;;;;;;11.55;62.79;94519.06;5085855;28;20070;-75
2022/05/06 01:19:01;;;;;;;8.35;5.00;;;;;;;11.53;62.74;94515.91;5086005;28;20024;-76
2022/05/06 01:21:27;;;;;;;7.40;5.20;;;;;;;11.38;63.42;94514.38;5085768;28;20269;-76
2022/05/06 01:23:53;;;;;;;12.73;6.05;;;;;;;11.38;63.32;94500.25;5085927;28;20036;-76
2022/05/06 01:26:19;;;;;;;10.38;5.55;;;;;;;11.39;63.44;94510.63;5085727;28;20024;-76
2022/05/06 01:28:45;;;;;;;10.85;5.43;;;;;;;11.40;63.53;94514.09;5085899;28;20026;-75
2022/05/06 01:31:18;;;;;;;7.70;5.22;;;;;;;11.42;63.59;94507.34;5085757;28;20023;-76
2022/05/06 01:33:45;;;;;;;10.05;4.97;;;;;;;11.43;63.54;94506.25;5084657;28;20020;-74
2022/05/06 01:36:11;;;;;;;8.07;4.97;;;;;;;11.43;63.55;94508.94;5085726;28;20021;-74
2022/05/06 01:38:40;;;;;;;9.23;5.18;;;;;;;11.43;63.70;94490.25;5085374;28;20047;-74
2022/05/06 01:41:10;;;;;;;7.80;4.85;;;;;;;11.42;63.46;94494.00;5085502;28;20032;-74
2022/05/06 01:43:39;;;;;;;13.80;5.30;;;;;;;11.43;63.47;94498.25;5085504;28;20066;-73
2022/05/06 01:46:06;;;;;;;6.28;4.68;;;;;;;11.42;63.31;94506.56;5085601;28;20358;-73
2022/05/06 01:48:34;;;;;;;7.65;4.85;;;;;;;11.42;63.52;94493.22;5085636;28;20035;-73
2022/05/06 01:51:01;;;;;;;11.90;5.55;;;;;;;11.36;63.79;94489.88;5085339;28;20024;-74
2022/05/06 01:53:27;;;;;;;7.00;4.80;;;;;;;11.39;63.95;94494.59;5085323;28;20020;-73
2022/05/06 01:55:52;;;;;;;12.57;4.90;;;;;;;11.38;63.52;94497.59;5085274;28;20219;-74
2022/05/06 01:58:18;;;;;;;8.35;4.93;;;;;;;11.35;63.57;94501.63;5085124;28;20262;-73
2022/05/06 02:00:44;;;;;;;9.88;5.75;;;;;;;11.35;63.46;94498.97;5085134;28;20066;-73
2022/05/06 02:05:16;;;;;;;11.85;5.20;;;;;;;11.38;63.61;94500.25;5084848;28;20243;-73
2022/05/06 02:05:54;;;;;;;7.72;4.40;;;;;;;11.35;63.38;94509.66;5084829;28;20040;-73
2022/05/06 02:08:20;;;;;;;12.85;5.13;;;;;;;11.35;63.46;94493.63;5085171;28;20025;-73
2022/05/06 02:10:45;;;;;;;12.25;5.00;;;;;;;11.36;63.55;94497.13;5084894;28;20315;-73
2022/05/06 02:13:11;;;;;;;9.00;4.55;;;;;;;11.36;63.23;94505.13;5084968;28;20028;-73
2022/05/06 02:15:38;;;;;;;11.27;4.80;;;;;;;11.35;63.65;94511.53;5084982;28;20013;-73
2022/05/06 02:18:04;;;;;;;7.63;4.63;;;;;;;11.33;63.80;94508.38;5084954;28;20023;-73
2022/05/06 02:20:29;;;;;;;7.60;4.53;;;;;;;11.30;63.97;94507.09;5084473;28;20029;-73
2022/05/06 02:22:54;;;;;;;8.52;4.40;;;;;;;11.26;64.11;94516.81;5084680;28;20032;-74
2022/05/06 02:25:20;;;;;;;7.65;4.82;;;;;;;11.24;64.20;94522.44;5084646;28;20012;-73
2022/05/06 02:27:45;;;;;;;7.53;4.68;;;;;;;11.23;63.95;94504.84;5084969;28;20016;-73
2022/05/06 02:33:13;;;;;;;7.28;4.63;;;;;;;11.16;64.56;94503.69;5084527;28;20098;-73
2022/05/06 02:35:41;;;;;;;6.82;4.75;;;;;;;11.14;64.61;94505.88;5084443;28;20024;-73
2022/05/06 02:38:08;;;;;;;7.00;5.05;;;;;;;11.11;64.68;94496.56;5084372;28;20028;-73
2022/05/06 02:40:35;;;;;;;6.88;4.18;;;;;;;11.11;64.76;94501.13;5084543;28;20227;-74
2022/05/06 02:43:04;;;;;;;6.45;4.25;;;;;;;11.10;64.63;94496.88;5084153;28;20024;-74
2022/05/06 02:45:33;;;;;;;8.82;4.90;;;;;;;11.10;64.51;94500.34;5084457;28;20024;-73
2022/05/06 02:47:59;;;;;;;10.50;5.60;;;;;;;11.09;64.62;94508.63;5084496;28;20310;-74
2022/05/06 02:50:25;;;;;;;9.50;4.47;;;;;;;11.05;64.82;94503.09;5084233;28;20252;-74
2022/05/06 02:52:51;;;;;;;8.02;5.22;;;;;;;11.06;64.78;94495.91;5084205;28;20027;-75
2022/05/06 02:55:16;;;;;;;8.18;5.43;;;;;;;11.10;64.59;94502.22;5083874;28;20066;-74
2022/05/06 02:57:42;;;;;;;13.52;5.75;;;;;;;11.06;64.59;94503.91;5083947;28;20055;-75
2022/05/06 03:00:08;;;;;;;10.15;6.22;;;;;;;10.94;65.20;94505.19;5083906;28;20027;-75
2022/05/06 03:02:34;;;;;;;9.68;6.00;;;;;;;10.94;65.23;94507.88;5083937;28;20024;-74
2022/05/06 03:04:59;;;;;;;8.40;6.00;;;;;;;10.94;65.38;94507.88;5083864;28;20333;-74
2022/05/06 03:07:25;;;;;;;8.27;5.35;;;;;;;10.97;65.37;94504.63;5066032;28;20070;-74
2022/05/06 03:09:52;;;;;;;8.88;5.57;;;;;;;10.96;65.20;94513.69;5083979;28;20031;-73
2022/05/06 03:12:18;;;;;;;9.32;6.30;;;;;;;10.94;65.39;94507.88;5083663;28;20043;-74
2022/05/06 03:14:44;;;;;;;10.88;5.68;;;;;;;10.93;65.60;94506.31;5083826;28;20322;-74
2022/05/06 03:17:09;;;;;;;10.32;6.13;;;;;;;10.94;65.60;94501.75;5083587;28;20107;-74
2022/05/06 03:19:35;;;;;;;8.27;5.65;;;;;;;10.96;65.56;94510.25;5083893;28;20062;-74
2022/05/06 03:22:01;;;;;;;7.80;4.68;;;;;;;10.94;65.52;94513.19;5083560;28;20095;-75
2022/05/06 03:24:27;;;;;;;9.48;5.80;;;;;;;10.96;65.57;94507.56;5083450;28;20286;-74
2022/05/06 03:26:52;;;;;;;9.07;6.20;;;;;;;11.00;65.33;94505.88;5083341;28;20048;-74
2022/05/06 03:29:18;;;;;;;9.93;5.90;;;;;;;10.99;65.66;94515.78;5083479;28;20016;-74
2022/05/06 03:31:44;;;;;;;9.10;5.68;;;;;;;10.97;65.62;94523.28;5083508;28;20311;-74
2022/05/06 03:34:09;;;;;;;12.98;6.20;;;;;;;10.97;65.81;94519.81;5083481;28;20337;-74
2022/05/06 03:36:35;;;;;;;11.27;6.15;;;;;;;10.96;65.80;94521.69;5083592;28;20036;-73
2022/05/06 03:39:03;;;;;;;11.88;5.82;;;;;;;10.98;65.97;94527.53;5083241;28;20080;-74
2022/05/06 03:41:29;;;;;;;11.85;5.80;;;;;;;10.96;65.74;94529.69;5083138;28;20028;-73
2022/05/06 03:43:54;;;;;;;11.32;6.10;;;;;;;10.92;66.04;94536.72;5083132;28;20091;-75
2022/05/06 03:46:20;;;;;;;8.15;6.32;;;;;;;10.91;66.10;94535.16;5083135;28;20029;-73
2022/05/06 03:48:45;;;;;;;10.55;6.75;;;;;;;10.92;66.12;94536.72;5083240;28;20039;-73
2022/05/06 03:51:24;;;;;;;10.07;6.57;;;;;;;10.95;66.11;94541.47;5083039;28;20087;-73
2022/05/06 03:53:55;;;;;;;11.77;7.15;;;;;;;10.99;66.18;94547.78;5083254;28;20253;-73
2022/05/06 03:56:24;;;;;;;11.67;7.37;;;;;;;11.02;66.10;94552.50;5082428;28;20099;-73
2022/05/06 03:58:50;;;;;;;10.52;6.22;;;;;;;11.04;66.04;94555.66;5082988;28;20048;-74
2022/05/06 04:01:17;;;;;;;10.27;6.47;;;;;;;11.09;65.87;94551.31;5083100;28;20024;-75
2022/05/06 04:03:43;;;;;;;10.60;6.95;;;;;;;11.11;66.21;94546.47;5083117;28;20067;-75
2022/05/06 04:06:09;;;;;;;11.25;7.07;;;;;;;11.16;65.95;94549.81;5083024;28;20051;-75
2022/05/06 04:08:34;;;;;;;10.48;6.72;;;;;;;11.20;65.82;94548.13;5083018;28;20082;-75
2022/05/06 04:11:00;;;;;;;9.00;5.63;;;;;;;11.27;65.49;94550.38;5082962;28;20016;-75
2022/05/06 04:13:26;;;;;;;10.85;6.57;;;;;;;11.31;65.82;94548.69;5082983;28;20095;-75
2022/05/06 04:15:52;;;;;;;10.15;6.60;;;;;;;11.35;65.80;94547.00;5082967;28;20066;-74
2022/05/06 04:18:17;;;;;;;13.02;7.20;;;;;;;11.36;65.97;94551.28;5082757;28;20095;-75
2022/05/06 04:23:30;;;;;;;9.25;6.55;;;;;;;11.44;65.87;94550.56;5082814;28;20067;-73
2022/05/06 04:26:01;;;;;;;18.38;7.18;;;;;;;11.48;65.74;94547.28;5082804;28;20020;-73
2022/05/06 04:28:31;;;;;;;13.23;7.78;;;;;;;11.49;65.28;94557.66;5082998;28;20025;-74
2022/05/06 04:30:57;;;;;;;11.45;7.10;;;;;;;11.53;65.06;94565.84;5082906;28;20338;-74
2022/05/06 04:33:26;;;;;;;11.95;6.53;;;;;;;11.53;65.59;94565.84;5082821;28;20020;-72
2022/05/06 04:35:53;;;;;;;13.85;7.78;;;;;;;11.53;65.60;94571.97;5082852;28;20024;-74
2022/05/06 04:38:19;;;;;;;14.95;6.85;;;;;;;11.49;65.66;94573.66;5082752;28;20020;-74
2022/05/06 04:40:44;;;;;;;9.00;7.45;;;;;;;11.43;65.98;94578.31;5082632;28;20032;-73
2022/05/06 04:43:11;;;;;;;10.20;7.50;;;;;;;11.42;65.80;94582.09;5082663;28;20020;-73
2022/05/06 04:45:43;;;;;;;17.17;7.55;;;;;;;11.42;66.13;94570.63;5082853;28;20043;-73
2022/05/06 04:48:11;;;;;;;14.50;6.97;;;;;;;11.47;66.31;94575.06;5082426;28;20043;-74
2022/05/06 04:50:37;;;;;;;10.93;7.30;;;;;;;11.52;65.66;94572.28;5082886;28;20029;-74
2022/05/06 04:53:07;;;;;;;13.95;7.03;;;;;;;11.54;66.04;94572.75;5082573;28;20035;-73
2022/05/06 04:55:34;;;;;;;12.02;6.95;;;;;;;11.53;66.24;94580.00;5082462;28;20024;-73
2022/05/06 04:57:59;;;;;;;11.48;7.10;;;;;;;11.52;66.11;94577.59;5082412;28;20062;-73
2022/05/06 05:00:25;;;;;;;14.27;7.72;;;;;;;11.57;66.16;94582.84;5082409;28;20024;-74
2022/05/06 05:02:50;;;;;;;11.95;8.18;;;;;;;11.63;65.59;94587.00;5082345;28;20028;-74
2022/05/06 05:05:16;;;;;;;11.70;9.02;;;;;;;11.71;65.42;94594.28;5082577;28;20361;-74
2022/05/06 05:07:42;;;;;;;14.60;8.30;;;;;;;11.75;65.56;94589.13;5083441;28;20067;-74
2022/05/06 05:10:08;;;;;;;20.55;8.00;;;;;;;11.80;65.52;94595.13;5086293;28;20028;-74
2022/05/06 05:12:35;;;;;;;11.43;8.48;;;;;;;11.81;65.37;94588.69;5086279;28;20016;-74
2022/05/06 05:15:01;;;;;;;14.05;9.13;;;;;;;11.85;65.25;94595.03;5086133;28;20044;-74
2022/05/06 05:17:27;;;;;;;10.63;8.40;;;;;;;11.87;65.68;94596.63;5085905;28;20104;-74
2022/05/06 05:19:53;;;;;;;14.65;8.65;;;;;;;11.95;65.17;94593.25;5086122;28;20028;-75
2022/05/06 05:22:19;;;;;;;15.68;9.35;;;;;;;12.04;65.91;94599.44;5085578;28;20090;-74
2022/05/06 05:24:44;;;;;;;12.95;8.50;;;;;;;12.13;65.06;94592.28;5085934;28;20318;-75
2022/05/06 05:27:10;;;;;;;13.57;8.48;;;;;;;12.15;64.95;94592.75;5085896;28;20219;-75
2022/05/06 05:29:35;;;;;;;17.13;9.88;;;;;;;12.21;64.42;94591.53;5085988;28;20030;-76
2022/05/06 05:32:02;;;;;;;17.90;10.23;;;;;;;12.28;63.96;94593.78;5085728;28;20023;-74
2022/05/06 05:34:27;;;;;;;15.80;9.70;;;;;;;12.31;63.79;94587.03;5085427;28;20024;-75
2022/05/06 05:36:53;;;;;;;25.60;10.13;;;;;;;12.34;63.56;94583.75;5085843;28;20058;-74
2022/05/06 05:39:18;;;;;;;17.02;9.38;;;;;;;12.33;63.49;94592.84;5085824;28;20306;-75
2022/05/06 05:41:44;;;;;;;17.73;9.70;;;;;;;12.44;63.45;94602.22;5085701;28;20035;-75
2022/05/06 05:49:37;;;;;;;14.98;9.57;;;;;;;12.66;62.93;94598.69;5085410;28;20058;-75
2022/05/06 05:52:04;;;;;;;21.55;9.50;;;;;;;12.77;62.90;94599.22;5085443;28;20028;-75
2022/05/06 05:54:29;;;;;;;23.33;9.95;;;;;;;12.85;62.82;94583.19;5085103;28;20053;-75
2022/05/06 05:56:55;;;;;;;16.33;9.23;;;;;;;12.99;62.23;94583.09;5085295;28;20044;-73
2022/05/06 05:59:23;;;;;;;17.30;9.60;;;;;;;13.09;62.01;94591.91;5085291;28;20044;-74
2022/05/06 06:01:49;;;;;;;21.27;10.02;;;;;;;13.16;61.79;94587.69;5085133;28;20062;-74
2022/05/06 06:04:15;;;;;;;16.95;8.45;;;;;;;13.29;61.52;94577.16;5085179;28;20024;-79
2022/05/06 06:06:41;;;;;;;13.48;8.98;;;;;;;13.44;60.95;94584.78;5085257;28;20247;-75
2022/05/06 06:09:08;;;;;;;17.20;11.52;;;;;;;13.58;62.03;94579.31;5085433;28;20264;-79
2022/05/06 06:11:33;;;;;;;19.58;10.65;;;;;;;13.82;61.65;94585.00;5084802;28;20050;-78
2022/05/06 06:13:58;;;;;;;17.63;8.70;;;;;;;14.10;60.30;94584.63;5084960;28;20333;-79
2022/05/06 06:16:24;;;;;;;17.27;8.63;;;;;;;14.30;58.86;94577.06;5084636;28;20032;-80
2022/05/06 06:18:49;;;;;;;15.88;9.10;;;;;;;14.51;58.45;94577.16;5084154;28;20092;-80
2022/05/06 06:21:15;;;;;;;14.07;8.00;;;;;;;14.74;57.60;94585.81;5084279;28;20024;-79
2022/05/06 06:23:40;;;;;;;17.15;7.82;;;;;;;14.92;56.18;94581.94;5084407;28;20314;-80
2022/05/06 06:26:06;;;;;;;16.50;7.97;;;;;;;15.16;55.73;94599.34;5066467;28;20029;-80
2022/05/06 06:28:31;;;;;;;13.43;6.65;;;;;;;15.38;54.70;94592.91;5084236;28;20134;-79
2022/05/06 06:30:56;;;;;;;20.33;7.20;;;;;;;15.60;53.52;94589.16;5084216;28;20083;-79
2022/05/06 06:33:22;;;;;;;12.77;6.70;;;;;;;15.76;53.07;94579.41;5084231;28;20074;-79
2022/05/06 06:35:47;;;;;;;14.52;6.15;;;;;;;15.97;52.36;94586.69;5084010;28;20052;-77
2022/05/06 06:38:13;;;;;;;13.48;6.80;;;;;;;16.13;51.55;94582.28;5084135;28;20063;-77
2022/05/06 06:40:38;;;;;;;9.02;5.97;;;;;;;16.22;51.17;94574.13;5083727;28;20324;-79
2022/05/06 06:43:04;;;;;;;13.35;6.78;;;;;;;16.32;50.57;94575.63;5084456;28;20091;-74
2022/05/06 06:45:31;;;;;;;9.75;6.30;;;;;;;16.33;49.59;94579.91;5084293;28;20349;-75
2022/05/06 06:47:59;;;;;;;16.65;7.32;;;;;;;16.31;50.13;94576.75;5084255;28;20047;-75
2022/05/06 06:50:25;;;;;;;17.85;8.32;;;;;;;16.32;49.91;94579.09;5084306;28;20028;-73
2022/05/06 06:52:51;;;;;;;28.10;6.57;;;;;;;16.07;50.21;94580.13;5084034;28;20066;-74
2022/05/06 06:55:17;;;;;;;12.95;6.90;;;;;;;16.07;50.44;94572.84;5083993;28;20036;-74
2022/05/06 06:57:43;;;;;;;13.02;6.03;;;;;;;16.07;50.62;94582.81;5084159;28;20048;-74
2022/05/06 07:00:09;;;;;;;14.55;7.00;;;;;;;16.06;51.45;94576.66;5084519;28;20028;-73
2022/05/06 07:02:39;;;;;;;19.98;7.28;;;;;;;16.00;51.18;94577.97;5084531;28;20226;-73
2022/05/06 07:05:05;;;;;;;14.77;7.18;;;;;;;16.10;51.49;94571.38;5084241;28;20039;-73
2022/05/06 07:12:59;;;;;;;24.10;9.73;;;;;;;16.41;49.69;94570.94;5084161;28;20027;-73
2022/05/06 07:15:25;;;;;;;18.20;7.90;;;;;;;16.44;49.85;94578.34;5083772;28;20303;-74
2022/05/06 07:17:50;;;;;;;19.00;8.98;;;;;;;16.57;49.48;94569.19;5083983;28;20024;-74
2022/05/06 07:20:16;;;;;;;21.35;7.53;;;;;;;16.53;48.21;94572.88;5083732;28;20028;-74
2022/05/06 07:22:42;;;;;;;17.63;8.15;;;;;;;16.46;49.46;94573.41;5083279;28;20036;-73
2022/05/06 07:25:08;;;;;;;16.15;9.13;;;;;;;16.58;48.69;94576.13;5083757;28;20047;-73
2022/05/06 07:27:35;;;;;;;18.90;8.52;;;;;;;16.71;48.70;94573.47;5065807;28;20211;-73
2022/05/06 07:30:05;;;;;;;16.67;7.07;;;;;;;16.93;48.91;94570.38;5083147;28;20078;-73
2022/05/06 07:32:30;;;;;;;10.15;6.07;;;;;;;17.15;47.86;94571.06;5083265;28;20016;-73
2022/05/06 07:34:56;;;;;;;14.65;5.95;;;;;;;17.38;47.23;94574.06;5083242;28;20030;-74
2022/05/06 07:37:22;;;;;;;15.20;5.63;;;;;;;17.57;46.43;94578.91;5083948;28;20031;-74
2022/05/06 07:39:47;;;;;;;19.45;6.35;;;;;;;17.71;45.54;94576.63;5083733;28;20028;-74
2022/05/06 07:42:13;;;;;;;7.28;5.03;;;;;;;17.88;45.56;94575.59;5083623;28;20078;-74
2022/05/06 07:44:38;;;;;;;11.68;4.97;;;;;;;18.06;46.08;94573.41;5083485;28;20055;-74
2022/05/06 07:47:04;;;;;;;8.63;4.75;;;;;;;18.28;44.85;94580.19;5083284;28;20031;-74
2022/05/06 07:49:30;;;;;;;10.93;4.68;;;;;;;18.48;45.03;94567.59;5083195;28;20032;-74
2022/05/06 07:51:55;;;;;;;12.98;5.70;;;;;;;18.62;44.17;94570.69;5082892;28;20211;-74
2022/05/06 07:54:21;;;;;;;9.25;5.03;;;;;;;18.73;43.77;94570.16;5083053;28;20024;-73
2022/05/06 07:56:46;;;;;;;10.88;4.15;;;;;;;18.85;43.71;94572.81;5083144;28;20040;-73
2022/05/06 07:59:12;;;;;;;9.73;5.03;;;;;;;19.01;43.69;94568.19;5083147;28;20406;-73
2022/05/06 08:04:34;;;;;;;9.43;4.53;;;;;;;19.25;42.57;94577.22;5083186;28;20073;-73
2022/05/06 08:07:05;;;;;;;10.73;4.47;;;;;;;19.38;42.25;94573.28;5082874;28;20096;-74
2022/05/06 08:09:30;;;;;;;15.02;4.28;;;;;;;19.51;42.24;94573.97;5083152;28;20322;-74
2022/05/06 08:11:56;;;;;;;13.25;3.97;;;;;;;19.65;41.82;94570.78;5083589;28;20044;-74
2022/05/06 08:14:21;;;;;;;8.20;4.53;;;;;;;19.83;41.73;94568.50;5083210;28;20087;-73
2022/05/06 08:16:48;;;;;;;14.63;4.07;;;;;;;19.99;41.65;94571.16;5082829;28;20024;-73
2022/05/06 08:19:14;;;;;;;14.88;4.80;;;;;;;20.03;41.09;94569.31;5082678;28;20032;-73
2022/05/06 08:21:40;;;;;;;10.65;4.25;;;;;;;19.97;40.38;94554.50;5083096;28;20028;-73
2022/05/06 08:24:06;;;;;;;5.75;4.25;;;;;;;20.04;39.68;94557.34;5083069;28;20028;-73
2022/05/06 08:26:32;;;;;;;12.30;4.43;;;;;;;20.09;40.04;94565.19;5082523;28;20031;-73
2022/05/06 08:28:57;;;;;;;6.60;3.58;;;;;;;20.22;41.11;94563.09;5082789;28;20028;-73
2022/05/06 08:31:23;;;;;;;9.65;4.25;;;;;;;20.27;41.16;94573.63;5082967;28;20192;-73
2022/05/06 08:33:48;;;;;;;5.43;4.10;;;;;;;20.36;40.83;94570.72;5082666;28;20288;-73
2022/05/06 08:36:14;;;;;;;8.80;3.70;;;;;;;20.44;40.85;94567.78;5082843;28;20100;-73
2022/05/06 08:38:39;;;;;;;14.23;4.45;;;;;;;20.58;40.50;94564.59;5082864;28;20056;-73
2022/05/06 08:41:05;;;;;;;6.72;3.63;;;;;;;20.69;40.17;94561.28;5082417;28;20266;-76
2022/05/06 08:43:31;;;;;;;10.15;3.78;;;;;;;20.75;39.80;94555.19;5086560;28;20032;-73
2022/05/06 08:51:31;;;;;;;12.70;3.63;;;;;;;20.92;39.92;94569.41;5086535;28;20019;-73
2022/05/06 08:53:57;;;;;;;6.50;3.85;;;;;;;20.98;39.26;94557.91;5086684;28;20039;-73
2022/05/06 08:56:23;;;;;;;5.90;3.05;;;;;;;21.06;39.05;94558.03;5086523;28;20013;-72
2022/05/06 08:58:48;;;;;;;7.18;3.50;;;;;;;21.31;39.40;94544.84;5086127;28;20047;-72
2022/05/06 09:01:15;;;;;;;7.72;3.20;;;;;;;21.46;38.89;94548.59;5086326;28;20043;-72
2022/05/06 09:03:42;;;;;;;12.50;3.60;;;;;;;21.61;38.02;94555.78;5086667;28;20043;-73
2022/05/06 09:06:21;;;;;;;6.38;3.35;;;;;;;21.75;37.85;94550.53;5086467;28;20020;-73
2022/05/06 09:08:49;;;;;;;7.57;3.60;;;;;;;21.82;37.41;94550.66;5086168;28;20204;-73
2022/05/06 09:11:17;;;;;;;9.68;3.08;;;;;;;21.81;37.50;94557.22;5086218;28;20027;-72
2022/05/06 09:13:55;;;;;;;10.10;3.20;;;;;;;21.89;37.17;94544.53;5086431;28;20095;-72
2022/05/06 09:16:44;;;;;;;7.53;3.47;;;;;;;21.95;36.76;94547.72;5086247;28;20052;-73
2022/05/06 09:19:20;;;;;;;9.68;3.58;;;;;;;22.07;36.77;94543.97;5086249;28;20020;-73
2022/05/06 09:22:14;;;;;;;6.18;2.70;;;;;;;22.18;36.21;94542.16;5086250;28;20033;-73
2022/05/06 09:24:41;;;;;;;5.75;2.63;;;;;;;22.14;35.53;94539.41;5086338;28;20064;-73
2022/05/06 09:27:09;;;;;;;8.55;3.00;;;;;;;22.02;35.16;94535.00;5085994;28;20028;-73
2022/05/06 09:29:54;;;;;;;6.93;2.50;;;;;;;22.16;34.50;94528.94;5086177;28;20032;-72
2022/05/06 09:32:26;;;;;;;4.28;2.72;;;;;;;22.16;34.26;94520.81;5086157;28;20024;-72
2022/05/06 09:34:55;;;;;;;;;;;;;;;22.10;34.39;94518.78;5086167;28;20095;-73
2022/05/06 09:37:37;;;;;;;13.63;2.67;;;;;;;22.10;34.14;94518.78;5085852;28;20106;-73
2022/05/06 09:40:20;;;;;;;16.15;3.85;;;;;;;22.15;34.83;94516.53;5085960;28;20035;-73
2022/05/06 09:42:57;;;;;;;5.57;2.95;;;;;;;22.36;34.94;94516.00;5085688;28;20223;-73
2022/05/06 09:45:39;;;;;;;7.75;2.85;;;;;;;22.43;33.74;94507.94;5085460;28;20035;-73
2022/05/06 09:48:09;;;;;;;12.50;3.83;;;;;;;22.49;34.19;94504.88;5085541;28;20024;-73
2022/05/06 09:50:34;;;;;;;5.53;3.45;;;;;;;22.55;33.19;94506.09;5085507;28;20047;-73
2022/05/06 09:53:02;;;;;;;9.02;3.50;;;;;;;22.56;33.43;94513.88;5084970;28;20315;-73
2022/05/06 09:55:30;;;;;;;6.45;3.22;;;;;;;22.70;33.02;94505.09;5085818;28;20020;-73
2022/05/06 09:57:59;;;;;;;8.30;3.30;;;;;;;22.67;32.20;94508.53;5084831;28;20158;-73
2022/05/06 10:00:25;;;;;;;8.43;2.95;;;;;;;22.72;32.63;94512.88;5085082;28;20043;-73
2022/05/06 10:02:51;;;;;;;5.30;3.08;;;;;;;22.79;32.76;94512.94;5085029;28;20024;-72
2022/05/06 10:05:16;;;;;;;7.75;3.53;;;;;;;22.80;32.07;94500.91;5067586;28;20044;-73
2022/05/06 10:07:43;;;;;;;4.63;2.97;;;;;;;22.87;32.02;94503.69;5085411;28;20255;-73
2022/05/06 10:10:26;;;;;;;7.75;3.45;;;;;;;22.89;32.38;94506.81;5085267;28;20029;-73
2022/05/06 10:13:04;;;;;;;7.97;3.45;;;;;;;22.91;32.85;94509.16;5084746;28;20092;-73
2022/05/06 10:15:31;;;;;;;10.05;3.67;;;;;;;23.08;35.30;94507.75;5084676;28;20022;-73
2022/05/06 10:17:58;;;;;;;15.93;4.05;;;;;;;23.19;33.96;94514.06;5084731;28;20016;-74
2022/05/06 10:20:36;;;;;;;8.23;4.45;;;;;;;23.30;33.05;94504.03;5084571;28;20223;-80
2022/05/06 10:23:07;;;;;;;8.30;3.60;;;;;;;23.37;31.48;94501.34;5085150;28;20044;-80
2022/05/06 10:25:42;;;;;;;8.57;3.35;;;;;;;23.28;30.90;94505.56;5084822;28;20044;-80
2022/05/06 10:34:16;;;;;;;10.38;3.22;;;;;;;23.22;30.60;94502.41;5084747;28;20091;-81
2022/05/06 10:36:43;;;;;;;6.68;3.38;;;;;;;23.26;31.42;94492.34;5084617;28;20025;-81
2022/05/06 10:39:26;;;;;;;4.25;2.60;;;;;;;23.28;30.55;94490.03;5084442;28;20330;-81
2022/05/06 10:41:58;;;;;;;6.25;3.38;;;;;;;23.36;30.56;94491.63;5066471;28;20215;-81
2022/05/06 10:44:47;;;;;;;5.65;3.15;;;;;;;23.36;30.34;94485.41;5084527;28;20032;-81
2022/05/06 10:47:12;;;;;;;5.88;3.25;;;;;;;23.33;30.20;94486.19;5084595;28;20020;-82
2022/05/06 10:49:37;;;;;;;5.25;3.00;;;;;;;23.43;30.59;94488.19;5066644;28;20048;-82
2022/05/06 10:54:59;;;;;;;7.50;2.80;;;;;;;23.68;29.68;94480.16;5084227;28;20035;-82
2022/05/06 10:57:27;;;;;;;5.15;2.80;;;;;;;23.73;29.66;94476.28;5084097;28;20074;-81
2022/05/06 11:00:04;;;;;;;7.78;2.20;;;;;;;23.69;29.45;94470.03;5084228;28;20068;-80
2022/05/06 11:02:35;;;;;;;6.80;2.42;;;;;;;23.73;29.25;94479.78;5084009;28;20036;-82
2022/05/06 11:05:05;;;;;;;5.68;3.40;;;;;;;23.76;29.13;94476.28;5083021;28;20047;-82
2022/05/06 11:07:33;;;;;;;8.57;2.45;;;;;;;23.78;29.09;94465.84;5083669;28;20024;-82
2022/05/06 11:09:59;;;;;;;3.55;2.65;;;;;;;23.86;28.18;94463.94;5066031;28;20066;-80
2022/05/06 11:12:35;;;;;;;6.75;2.85;;;;;;;23.86;28.96;94468.59;5083892;28;20025;-81
2022/05/06 11:15:03;;;;;;;6.13;2.70;;;;;;;23.89;28.18;94465.09;5066205;28;20046;-80
2022/05/06 11:17:31;;;;;;;5.63;2.45;;;;;;;23.88;28.27;94458.88;5083598;28;20027;-81
2022/05/06 11:19:57;;;;;;;8.65;2.90;;;;;;;23.91;28.16;94458.09;5083725;28;20024;-81
2022/05/06 11:22:23;;;;;;;5.65;2.95;;;;;;;23.98;28.30;94451.91;5083711;28;20079;-81
2022/05/06 11:24:54;;;;;;;9.77;2.40;;;;;;;24.05;27.94;94459.31;5083685;28;20039;-81
2022/05/06 11:27:20;;;;;;;4.00;2.65;;;;;;;24.08;27.29;94451.16;5084062;28;20342;-80
2022/05/06 11:29:55;;;;;;;6.00;2.63;;;;;;;24.20;27.23;94442.63;5083379;28;20307;-80
2022/05/06 11:32:22;;;;;;;7.15;2.65;;;;;;;24.22;27.68;94444.94;5083200;28;20023;-80
2022/05/06 11:34:52;;;;;;;5.85;2.35;;;;;;;24.35;28.69;94454.31;5083922;28;20028;-81
2022/05/06 11:37:29;;;;;;;5.07;2.30;;;;;;;24.37;27.52;94443.06;5083557;28;20311;-81
2022/05/06 11:42:39;;;;;;;10.48;2.70;;;;;;;24.45;27.05;94433.72;5082957;28;20055;-81
2022/05/06 11:47:48;;;;;;;3.97;2.70;;;;;;;24.33;26.74;94437.59;5083018;28;20100;-81
2022/05/06 11:50:14;;;;;;;4.38;2.30;;;;;;;24.36;26.60;94436.03;5083570;28;20036;-81
2022/05/06 11:52:40;;;;;;;3.75;2.13;;;;;;;24.34;26.63;94430.19;5083160;28;20012;-81
2022/05/06 11:55:07;;;;;;;5.53;2.80;;;;;;;24.31;26.43;94433.69;5083035;28;20252;-81
2022/05/06 11:57:37;;;;;;;5.47;2.42;;;;;;;24.33;25.48;94426.69;5083045;28;20040;-81
2022/05/06 12:00:06;;;;;;;6.20;2.30;;;;;;;24.37;25.91;94426.72;5065567;28;20020;-81
2022/05/06 12:02:33;;;;;;;5.72;2.03;;;;;;;24.55;25.49;94416.63;5083116;28;20059;-81
2022/05/06 12:04:58;;;;;;;7.95;2.33;;;;;;;24.60;24.85;94416.22;5083206;28;20096;-82
2022/05/06 12:07:42;;;;;;;4.97;2.03;;;;;;;24.65;24.77;94408.81;5083031;28;20048;-81
2022/05/06 12:10:08;;;;;;;4.25;1.73;;;;;;;24.74;24.35;94417.41;5083259;28;20024;-80